sensor_id;sensor_type;location;lat;lon;timestamp;pressure;altitude;pressure_sealevel;temperature;humidity
72707;BME280;62517;62.630;17.936;2022-08-14T07:04:08;101960.92;;;21.16;43.02
72707;BME280;62517;62.630;17.936;2022-08-14T07:06:36;101958.79;;;21.21;42.75
72707;BME280;62517;62.630;17.936;2022-08-14T07:09:05;101958.60;;;21.23;42.53
72707;BME280;62517;62.630;17.936;2022-08-14T07:11:34;101956.36;;;21.27;42.34
72707;BME280;62517;62.630;17.936;2022-08-14T07:14:03;101961.04;;;21.22;42.17
72707;BME280;62517;62.630;17.936;2022-08-14T07:16:32;101959.70;;;21.44;41.99
72707;BME280;62517;62.630;17.936;2022-08-14T07:19:00;101963.05;;;21.70;41.88
72707;BME280;62517;62.630;17.936;2022-08-14T07:21:28;101966.71;;;22.12;41.42
72707;BME280;62517;62.630;17.936;2022-08-14T07:23:56;101970.29;;;22.29;40.95
72707;BME280;62517;62.630;17.936;2022-08-14T07:26:24;101965.34;;;22.64;40.59
72707;BME280;62517;62.630;17.936;2022-08-14T07:28:51;101960.42;;;22.95;40.27
72707;BME280;62517;62.630;17.936;2022-08-14T07:31:19;101955.60;;;23.32;40.04
72707;BME280;62517;62.630;17.936;2022-08-14T07:33:47;101951.98;;;23.36;39.72
72707;BME280;62517;62.630;17.936;2022-08-14T07:36:16;101949.56;;;23.74;39.42
72707;BME280;62517;62.630;17.936;2022-08-14T07:38:45;101946.64;;;23.99;39.23
72707;BME280;62517;62.630;17.936;2022-08-14T07:41:12;101951.15;;;24.07;39.15
72707;BME280;62517;62.630;17.936;2022-08-14T07:43:41;101947.95;;;24.21;38.78
72707;BME280;62517;62.630;17.936;2022-08-14T07:46:12;101943.75;;;24.50;38.57
72707;BME280;62517;62.630;17.936;2022-08-14T07:48:41;101943.71;;;24.62;38.42
72707;BME280;62517;62.630;17.936;2022-08-14T07:51:09;101942.26;;;24.89;38.22
72707;BME280;62517;62.630;17.936;2022-08-14T07:53:39;101943.61;;;24.88;38.07
72707;BME280;62517;62.630;17.936;2022-08-14T07:56:08;101936.58;;;24.94;37.86
72707;BME280;62517;62.630;17.936;2022-08-14T07:58:37;101932.04;;;25.25;37.69
72707;BME280;62517;62.630;17.936;2022-08-14T08:01:06;101945.27;;;25.24;37.40
72707;BME280;62517;62.630;17.936;2022-08-14T08:03:37;101941.22;;;25.35;37.45
72707;BME280;62517;62.630;17.936;2022-08-14T08:06:08;101942.36;;;25.61;37.37
72707;BME280;62517;62.630;17.936;2022-08-14T08:08:37;101946.76;;;25.52;37.27
72707;BME280;62517;62.630;17.936;2022-08-14T08:11:05;101950.38;;;25.60;37.16
72707;BME280;62517;62.630;17.936;2022-08-14T08:13:37;101954.08;;;25.97;36.66
72707;BME280;62517;62.630;17.936;2022-08-14T08:16:08;101957.16;;;25.90;36.92
72707;BME280;62517;62.630;17.936;2022-08-14T08:18:36;101960.35;;;26.12;36.55
72707;BME280;62517;62.630;17.936;2022-08-14T08:21:05;101961.07;;;26.14;36.73
72707;BME280;62517;62.630;17.936;2022-08-14T08:23:36;101959.61;;;26.27;36.41
72707;BME280;62517;62.630;17.936;2022-08-14T08:26:04;101957.18;;;26.29;36.59
72707;BME280;62517;62.630;17.936;2022-08-14T08:28:34;101955.99;;;26.42;36.25
72707;BME280;62517;62.630;17.936;2022-08-14T08:31:05;101953.03;;;26.40;36.36
72707;BME280;62517;62.630;17.936;2022-08-14T08:33:34;101954.51;;;26.40;36.37
72707;BME280;62517;62.630;17.936;2022-08-14T08:36:05;101952.18;;;26.59;36.04
72707;BME280;62517;62.630;17.936;2022-08-14T08:38:36;101951.26;;;26.61;36.21
72707;BME280;62517;62.630;17.936;2022-08-14T08:41:05;101949.53;;;26.71;35.97
72707;BME280;62517;62.630;17.936;2022-08-14T08:43:36;101947.36;;;26.70;35.94
72707;BME280;62517;62.630;17.936;2022-08-14T08:46:07;101948.22;;;26.92;36.14
72707;BME280;62517;62.630;17.936;2022-08-14T08:48:43;101951.02;;;26.78;35.85
72707;BME280;62517;62.630;17.936;2022-08-14T08:51:21;101954.20;;;26.97;36.17
72707;BME280;62517;62.630;17.936;2022-08-14T08:53:58;101948.07;;;26.99;35.85
72707;BME280;62517;62.630;17.936;2022-08-14T08:56:39;101948.53;;;26.95;35.83
72707;BME280;62517;62.630;17.936;2022-08-14T08:59:25;101951.55;;;27.14;36.08
72707;BME280;62517;62.630;17.936;2022-08-14T09:01:56;101945.62;;;27.19;35.86
72707;BME280;62517;62.630;17.936;2022-08-14T09:04:25;101940.29;;;27.24;35.75
72707;BME280;62517;62.630;17.936;2022-08-14T09:06:55;101933.80;;;27.25;35.89
72707;BME280;62517;62.630;17.936;2022-08-14T09:09:25;101933.84;;;27.23;35.52
72707;BME280;62517;62.630;17.936;2022-08-14T09:11:56;101932.30;;;27.27;35.79
72707;BME280;62517;62.630;17.936;2022-08-14T09:14:26;101933.29;;;27.34;35.69
72707;BME280;62517;62.630;17.936;2022-08-14T09:16:57;101930.90;;;27.33;35.41
72707;BME280;62517;62.630;17.936;2022-08-14T09:19:26;101928.75;;;27.32;35.56
72707;BME280;62517;62.630;17.936;2022-08-14T09:21:54;101926.27;;;27.51;35.54
72707;BME280;62517;62.630;17.936;2022-08-14T09:24:22;101929.76;;;27.54;35.50
72707;BME280;62517;62.630;17.936;2022-08-14T09:26:52;101926.71;;;27.53;35.69
72707;BME280;62517;62.630;17.936;2022-08-14T09:29:20;101936.08;;;27.47;35.42
72707;BME280;62517;62.630;17.936;2022-08-14T09:31:52;101932.29;;;27.62;35.27
72707;BME280;62517;62.630;17.936;2022-08-14T09:34:35;101934.89;;;27.52;35.39
72707;BME280;62517;62.630;17.936;2022-08-14T09:37:23;101934.27;;;27.73;35.34
72707;BME280;62517;62.630;17.936;2022-08-14T09:40:03;101933.57;;;27.71;35.58
72707;BME280;62517;62.630;17.936;2022-08-14T09:42:42;101924.79;;;27.64;35.42
72707;BME280;62517;62.630;17.936;2022-08-14T09:45:13;101923.78;;;27.67;35.59
72707;BME280;62517;62.630;17.936;2022-08-14T09:47:46;101919.10;;;27.65;35.17
72707;BME280;62517;62.630;17.936;2022-08-14T09:50:18;101907.71;;;27.82;35.14
72707;BME280;62517;62.630;17.936;2022-08-14T09:52:50;101908.55;;;27.72;35.22
72707;BME280;62517;62.630;17.936;2022-08-14T09:55:21;101901.10;;;27.75;35.14
72707;BME280;62517;62.630;17.936;2022-08-14T09:57:51;101900.83;;;27.86;35.17
72707;BME280;62517;62.630;17.936;2022-08-14T10:03:11;101903.34;;;27.85;35.47
72707;BME280;62517;62.630;17.936;2022-08-14T10:05:41;101901.86;;;27.89;35.14
72707;BME280;62517;62.630;17.936;2022-08-14T10:08:18;101902.70;;;27.77;35.03
72707;BME280;62517;62.630;17.936;2022-08-14T10:10:48;101903.10;;;28.06;35.05
72707;BME280;62517;62.630;17.936;2022-08-14T10:13:24;101904.13;;;27.84;35.34
72707;BME280;62517;62.630;17.936;2022-08-14T10:15:58;101898.68;;;27.92;35.03
72707;BME280;62517;62.630;17.936;2022-08-14T10:18:27;101899.13;;;28.01;35.17
72707;BME280;62517;62.630;17.936;2022-08-14T10:20:58;101899.32;;;27.94;35.02
72707;BME280;62517;62.630;17.936;2022-08-14T10:23:27;101894.01;;;28.00;34.99
72707;BME280;62517;62.630;17.936;2022-08-14T10:26:03;101897.44;;;28.15;35.14
72707;BME280;62517;62.630;17.936;2022-08-14T10:28:38;101900.84;;;28.07;35.12
72707;BME280;62517;62.630;17.936;2022-08-14T10:31:18;101897.70;;;28.05;35.05
72707;BME280;62517;62.630;17.936;2022-08-14T10:34:05;101899.72;;;28.14;34.86
72707;BME280;62517;62.630;17.936;2022-08-14T10:36:35;101900.80;;;28.10;34.94
72707;BME280;62517;62.630;17.936;2022-08-14T10:39:13;101902.45;;;28.23;35.19
72707;BME280;62517;62.630;17.936;2022-08-14T10:41:44;101897.78;;;28.10;34.99
72707;BME280;62517;62.630;17.936;2022-08-14T10:44:14;101896.99;;;28.20;35.11
72707;BME280;62517;62.630;17.936;2022-08-14T10:46:46;101896.10;;;28.11;35.18
72707;BME280;62517;62.630;17.936;2022-08-14T10:49:21;101898.46;;;28.20;35.07
72707;BME280;62517;62.630;17.936;2022-08-14T10:51:58;101892.62;;;28.14;34.97
72707;BME280;62517;62.630;17.936;2022-08-14T10:54:30;101887.88;;;28.26;34.98
72707;BME280;62517;62.630;17.936;2022-08-14T10:57:11;101883.27;;;28.28;35.15
72707;BME280;62517;62.630;17.936;2022-08-14T10:59:42;101885.56;;;28.29;35.09
72707;BME280;62517;62.630;17.936;2022-08-14T11:02:20;101884.46;;;28.24;35.19
72707;BME280;62517;62.630;17.936;2022-08-14T11:04:59;101887.99;;;28.25;35.07
72707;BME280;62517;62.630;17.936;2022-08-14T11:07:28;101887.62;;;28.33;34.93
72707;BME280;62517;62.630;17.936;2022-08-14T11:09:58;101887.83;;;28.34;35.17
72707;BME280;62517;62.630;17.936;2022-08-14T11:12:39;101887.54;;;28.37;34.98
72707;BME280;62517;62.630;17.936;2022-08-14T11:15:08;101881.88;;;28.38;34.92
72707;BME280;62517;62.630;17.936;2022-08-14T11:17:37;101878.89;;;28.39;35.15
72707;BME280;62517;62.630;17.936;2022-08-14T11:20:08;101883.77;;;28.36;35.18
72707;BME280;62517;62.630;17.936;2022-08-14T11:22:39;101884.79;;;28.44;35.17
72707;BME280;62517;62.630;17.936;2022-08-14T11:25:11;101888.87;;;28.46;35.12
72707;BME280;62517;62.630;17.936;2022-08-14T11:27:43;101890.63;;;28.51;34.95
72707;BME280;62517;62.630;17.936;2022-08-14T11:30:14;101889.82;;;28.45;35.02
72707;BME280;62517;62.630;17.936;2022-08-14T11:32:44;101889.55;;;28.52;35.08
72707;BME280;62517;62.630;17.936;2022-08-14T11:35:16;101890.59;;;28.36;35.13
72707;BME280;62517;62.630;17.936;2022-08-14T11:37:53;101894.09;;;28.57;34.90
72707;BME280;62517;62.630;17.936;2022-08-14T11:40:25;101892.60;;;28.55;34.98
72707;BME280;62517;62.630;17.936;2022-08-14T11:42:54;101894.60;;;28.54;34.92
72707;BME280;62517;62.630;17.936;2022-08-14T11:45:24;101892.32;;;28.50;34.89
72707;BME280;62517;62.630;17.936;2022-08-14T11:47:54;101892.78;;;28.55;35.10
72707;BME280;62517;62.630;17.936;2022-08-14T11:50:26;101891.92;;;28.52;34.87
72707;BME280;62517;62.630;17.936;2022-08-14T11:52:55;101892.37;;;28.55;34.83
72707;BME280;62517;62.630;17.936;2022-08-14T11:55:25;101898.02;;;28.50;35.09
72707;BME280;62517;62.630;17.936;2022-08-14T11:58:03;101891.77;;;28.54;35.12
72707;BME280;62517;62.630;17.936;2022-08-14T12:00:32;101888.14;;;28.51;34.98
72707;BME280;62517;62.630;17.936;2022-08-14T12:03:01;101884.84;;;28.61;34.98
72707;BME280;62517;62.630;17.936;2022-08-14T12:05:32;101883.06;;;28.52;34.94
72707;BME280;62517;62.630;17.936;2022-08-14T12:08:02;101886.60;;;28.46;34.97
72707;BME280;62517;62.630;17.936;2022-08-14T12:10:32;101887.05;;;28.57;35.12
72707;BME280;62517;62.630;17.936;2022-08-14T12:13:10;101886.11;;;28.67;35.07
72707;BME280;62517;62.630;17.936;2022-08-14T12:15:41;101887.75;;;28.68;34.90
72707;BME280;62517;62.630;17.936;2022-08-14T12:18:11;101885.11;;;28.67;35.02
72707;BME280;62517;62.630;17.936;2022-08-14T12:20:42;101887.54;;;28.70;35.01
72707;BME280;62517;62.630;17.936;2022-08-14T12:23:20;101885.18;;;28.55;34.78
72707;BME280;62517;62.630;17.936;2022-08-14T12:26:01;101881.23;;;28.51;34.68
72707;BME280;62517;62.630;17.936;2022-08-14T12:28:30;101877.05;;;28.57;34.75
72707;BME280;62517;62.630;17.936;2022-08-14T12:30:58;101873.19;;;28.64;34.98
72707;BME280;62517;62.630;17.936;2022-08-14T12:33:29;101868.74;;;28.72;34.90
72707;BME280;62517;62.630;17.936;2022-08-14T12:36:00;101864.65;;;28.67;34.76
72707;BME280;62517;62.630;17.936;2022-08-14T12:38:32;101864.10;;;28.64;34.97
72707;BME280;62517;62.630;17.936;2022-08-14T12:41:01;101862.94;;;28.64;34.72
72707;BME280;62517;62.630;17.936;2022-08-14T12:43:30;101862.60;;;28.70;34.73
72707;BME280;62517;62.630;17.936;2022-08-14T12:46:00;101862.41;;;28.48;34.83
72707;BME280;62517;62.630;17.936;2022-08-14T12:48:28;101862.30;;;28.67;34.88
72707;BME280;62517;62.630;17.936;2022-08-14T12:50:57;101857.54;;;28.66;34.75
72707;BME280;62517;62.630;17.936;2022-08-14T12:53:33;101856.53;;;28.61;34.78
72707;BME280;62517;62.630;17.936;2022-08-14T12:56:02;101854.10;;;28.67;34.87
72707;BME280;62517;62.630;17.936;2022-08-14T12:58:31;101851.57;;;28.60;34.76
72707;BME280;62517;62.630;17.936;2022-08-14T13:01:01;101850.55;;;28.68;34.78
72707;BME280;62517;62.630;17.936;2022-08-14T13:03:30;101851.51;;;28.58;34.79
72707;BME280;62517;62.630;17.936;2022-08-14T13:05:58;101846.33;;;28.61;34.98
72707;BME280;62517;62.630;17.936;2022-08-14T13:08:26;101846.67;;;28.72;34.88
72707;BME280;62517;62.630;17.936;2022-08-14T13:10:55;101839.01;;;28.54;34.84
72707;BME280;62517;62.630;17.936;2022-08-14T13:13:24;101835.97;;;28.56;34.82
72707;BME280;62517;62.630;17.936;2022-08-14T13:15:54;101833.84;;;28.53;34.92
72707;BME280;62517;62.630;17.936;2022-08-14T13:18:25;101831.80;;;28.46;34.71
72707;BME280;62517;62.630;17.936;2022-08-14T13:20:55;101835.30;;;28.70;34.82
72707;BME280;62517;62.630;17.936;2022-08-14T13:23:24;101830.54;;;28.54;34.87
72707;BME280;62517;62.630;17.936;2022-08-14T13:25:53;101834.35;;;28.56;34.81
72707;BME280;62517;62.630;17.936;2022-08-14T13:28:22;101831.15;;;28.62;34.76
72707;BME280;62517;62.630;17.936;2022-08-14T13:30:55;101824.30;;;28.62;35.01
72707;BME280;62517;62.630;17.936;2022-08-14T13:33:25;101824.41;;;28.49;34.73
72707;BME280;62517;62.630;17.936;2022-08-14T13:35:55;101816.94;;;28.49;34.82
72707;BME280;62517;62.630;17.936;2022-08-14T13:38:24;101813.62;;;28.51;34.79
72707;BME280;62517;62.630;17.936;2022-08-14T13:40:54;101814.64;;;28.52;34.81
72707;BME280;62517;62.630;17.936;2022-08-14T13:43:24;101813.14;;;28.43;34.96
72707;BME280;62517;62.630;17.936;2022-08-14T13:45:54;101808.09;;;28.51;34.74
72707;BME280;62517;62.630;17.936;2022-08-14T13:48:23;101812.54;;;28.62;34.97
72707;BME280;62517;62.630;17.936;2022-08-14T13:50:54;101807.80;;;28.57;34.95
72707;BME280;62517;62.630;17.936;2022-08-14T13:53:25;101803.89;;;28.50;35.01
72707;BME280;62517;62.630;17.936;2022-08-14T13:55:54;101802.36;;;28.36;34.92
72707;BME280;62517;62.630;17.936;2022-08-14T13:58:24;101802.86;;;28.46;34.92
72707;BME280;62517;62.630;17.936;2022-08-14T14:00:53;101801.08;;;28.43;35.04
72707;BME280;62517;62.630;17.936;2022-08-14T14:03:23;101801.66;;;28.40;34.85
72707;BME280;62517;62.630;17.936;2022-08-14T14:05:53;101803.23;;;28.39;34.90
72707;BME280;62517;62.630;17.936;2022-08-14T14:08:22;101802.07;;;28.56;34.84
72707;BME280;62517;62.630;17.936;2022-08-14T14:10:52;101801.18;;;28.43;34.97
72707;BME280;62517;62.630;17.936;2022-08-14T14:13:24;101806.21;;;28.42;34.83
72707;BME280;62517;62.630;17.936;2022-08-14T14:15:52;101801.95;;;28.34;34.90
72707;BME280;62517;62.630;17.936;2022-08-14T14:18:24;101798.22;;;28.44;34.80
72707;BME280;62517;62.630;17.936;2022-08-14T14:20:53;101798.52;;;28.32;35.10
72707;BME280;62517;62.630;17.936;2022-08-14T14:23:23;101797.08;;;28.48;34.94
72707;BME280;62517;62.630;17.936;2022-08-14T14:25:53;101794.46;;;28.33;34.99
72707;BME280;62517;62.630;17.936;2022-08-14T14:28:27;101794.88;;;28.44;35.04
72707;BME280;62517;62.630;17.936;2022-08-14T14:30:57;101793.35;;;28.46;34.81
72707;BME280;62517;62.630;17.936;2022-08-14T14:33:29;101791.15;;;28.38;34.93
72707;BME280;62517;62.630;17.936;2022-08-14T14:36:01;101791.93;;;28.38;34.86
72707;BME280;62517;62.630;17.936;2022-08-14T14:38:32;101789.13;;;28.46;34.82
72707;BME280;62517;62.630;17.936;2022-08-14T14:41:00;101786.70;;;28.32;34.88
72707;BME280;62517;62.630;17.936;2022-08-14T14:43:33;101782.25;;;28.38;35.07
72707;BME280;62517;62.630;17.936;2022-08-14T14:46:02;101784.66;;;28.24;34.84
72707;BME280;62517;62.630;17.936;2022-08-14T14:48:32;101786.36;;;28.28;34.90
72707;BME280;62517;62.630;17.936;2022-08-14T14:50:59;101782.64;;;28.32;34.89
72707;BME280;62517;62.630;17.936;2022-08-14T14:53:31;101779.91;;;28.33;34.96
